Time;durP1;ratioP1;P1;durP2;ratioP2;P2;SDS_P1;SDS_P2;PMS_P1;PMS_P2;Temp;Humidity;BMP_temperature;BMP_pressure;BME280_temperature;BME280_humidity;BME280_pressure;Samples;Min_cycle;Max_cycle;Signal;HPM_P1;HPM_P2
2023/02/07 00:01:26;;;;;;;5.85;3.10;;;-0.40;99.90;;;-0.77;100.00;99590.72;4978510;28;20085;-67
2023/02/07 00:03:55;;;;;;;7.22;3.60;;;-0.40;99.90;;;-0.68;100.00;99591.91;4964473;28;20051;-67
2023/02/07 00:06:30;;;;;;;6.55;3.53;;;-0.30;99.90;;;-0.75;100.00;99589.06;4963483;28;20062;-67
2023/02/07 00:09:04;;;;;;;7.88;3.78;;;-0.30;99.90;;;-0.73;100.00;99587.44;4966189;28;20049;-67
2023/02/07 00:11:32;;;;;;;9.30;3.60;;;-0.20;99.90;;;-0.60;100.00;99592.16;4963215;28;20054;-67
2023/02/07 00:13:59;;;;;;;9.10;3.63;;;-0.10;99.90;;;-0.59;100.00;99591.38;4964781;28;20048;-67
2023/02/07 00:16:27;;;;;;;6.10;3.55;;;0.00;99.90;;;-0.62;100.00;99586.13;4965873;28;20055;-67
2023/02/07 00:18:55;;;;;;;8.93;3.45;;;0.10;99.90;;;-0.50;100.00;99580.59;4963458;28;20129;-67
2023/02/07 00:21:27;;;;;;;7.35;3.30;;;0.10;99.90;;;-0.58;100.00;99579.47;4961946;28;20051;-67
2023/02/07 00:23:55;;;;;;;9.20;4.30;;;0.10;99.90;;;-0.44;100.00;99576.56;4963462;28;20049;-67
2023/02/07 00:26:24;;;;;;;10.02;3.90;;;0.20;99.90;;;-0.49;100.00;99582.34;4962918;28;20059;-67
2023/02/07 00:28:53;;;;;;;8.73;4.30;;;0.10;99.90;;;-0.26;100.00;99578.00;4963264;28;20527;-67
2023/02/07 00:31:28;;;;;;;7.40;3.58;;;0.30;99.90;;;-0.42;100.00;99579.16;4961743;28;20049;-67
2023/02/07 00:34:00;;;;;;;6.72;3.38;;;0.20;99.90;;;-0.39;100.00;99579.25;4965678;28;20503;-67
2023/02/07 00:36:30;;;;;;;6.82;3.25;;;0.20;99.90;;;-0.39;100.00;99575.84;4950969;28;20447;-67
2023/02/07 00:39:04;;;;;;;8.32;3.78;;;0.20;99.90;;;-0.46;100.00;99572.22;4965926;28;20145;-67
2023/02/07 00:41:31;;;;;;;10.30;4.22;;;0.10;99.90;;;-0.52;100.00;99577.13;4961949;28;20105;-67
2023/02/07 00:43:58;;;;;;;6.18;3.90;;;0.00;99.90;;;-0.47;100.00;99567.94;4963408;28;20089;-67
2023/02/07 00:46:25;;;;;;;8.32;3.78;;;0.00;99.90;;;-0.49;100.00;99582.34;4962898;28;20057;-67
2023/02/07 00:48:53;;;;;;;8.43;3.72;;;0.00;99.90;;;-0.47;100.00;99580.72;4963078;28;20047;-67
2023/02/07 00:51:20;;;;;;;8.43;3.75;;;0.00;99.90;;;-0.48;100.00;99577.28;4960701;28;20466;-67
2023/02/07 00:53:47;;;;;;;11.07;3.88;;;0.00;99.90;;;-0.44;100.00;99571.44;4961283;28;20079;-67
2023/02/07 00:56:14;;;;;;;7.13;3.75;;;0.00;99.90;;;-0.49;100.00;99579.78;4965869;28;20059;-67
2023/02/07 00:58:41;;;;;;;8.60;3.80;;;0.10;99.90;;;-0.38;100.00;99578.47;4948449;28;20051;-67
2023/02/07 01:01:09;;;;;;;6.18;3.67;;;0.20;99.90;;;-0.40;100.00;99592.84;4960235;28;20066;-67
2023/02/07 01:03:36;;;;;;;6.45;3.40;;;0.20;99.90;;;-0.30;100.00;99594.88;4960104;28;20055;-67
2023/02/07 01:06:03;;;;;;;7.32;4.05;;;0.20;99.90;;;-0.29;100.00;99594.06;4958230;28;20054;-66
2023/02/07 01:08:33;;;;;;;7.80;3.42;;;0.30;99.90;;;-0.35;100.00;99609.16;4959291;28;20130;-67
2023/02/07 01:11:04;;;;;;;9.88;3.85;;;0.30;99.90;;;-0.34;100.00;99603.25;4960909;28;20055;-67
2023/02/07 01:13:31;;;;;;;5.85;3.47;;;0.20;99.90;;;-0.39;100.00;99596.25;4960004;28;20058;-67
2023/02/07 01:15:59;;;;;;;6.00;3.53;;;0.20;99.90;;;-0.23;100.00;99588.28;4961237;28;20057;-67
2023/02/07 01:18:26;;;;;;;7.07;3.08;;;0.30;99.90;;;-0.20;100.00;99580.75;4961152;28;20086;-67
2023/02/07 01:20:53;;;;;;;6.25;3.75;;;0.40;99.90;;;-0.26;100.00;99585.66;4947401;28;20054;-67
2023/02/07 01:23:20;;;;;;;7.47;3.45;;;0.30;99.90;;;-0.29;100.00;99588.09;4958987;28;20055;-66
2023/02/07 01:25:47;;;;;;;6.20;3.40;;;0.30;99.90;;;-0.14;100.00;99583.47;4961696;28;20050;-67
2023/02/07 01:28:14;;;;;;;6.90;3.72;;;0.30;99.90;;;-0.20;100.00;99588.41;4960085;28;20067;-67
2023/02/07 01:30:43;;;;;;;8.43;3.63;;;0.30;99.90;;;-0.31;100.00;99580.38;4959757;28;20073;-67
2023/02/07 01:33:10;;;;;;;6.90;4.10;;;0.30;99.90;;;-0.39;100.00;99573.28;4957730;28;20533;-67
2023/02/07 01:35:37;;;;;;;5.53;3.40;;;0.20;99.90;;;-0.43;100.00;99577.44;4961806;28;20073;-67
2023/02/07 01:38:06;;;;;;;6.45;3.67;;;0.10;99.90;;;-0.36;100.00;99583.63;4957715;28;20055;-67
2023/02/07 01:40:37;;;;;;;7.93;3.75;;;0.10;99.90;;;-0.48;100.00;99587.50;4956894;28;20106;-67
2023/02/07 01:43:04;;;;;;;7.68;4.00;;;0.10;99.90;;;-0.48;100.00;99573.84;4957709;28;20046;-67
2023/02/07 01:45:37;;;;;;;6.00;3.20;;;0.00;99.90;;;-0.57;100.00;99564.22;4957478;28;20074;-67
2023/02/07 01:48:18;;;;;;;6.28;3.72;;;0.00;99.90;;;-0.58;100.00;99562.47;4956648;28;20061;-67
2023/02/07 01:50:48;;;;;;;6.63;3.50;;;0.00;99.90;;;-0.59;100.00;99564.97;4958024;28;20394;-67
2023/02/07 01:53:19;;;;;;;7.10;3.85;;;-0.10;99.90;;;-0.64;100.00;99569.91;4961858;28;20399;-67
2023/02/07 01:55:49;;;;;;;7.97;4.28;;;-0.20;99.90;;;-0.75;100.00;99556.81;4956568;28;20059;-67
2023/02/07 01:58:16;;;;;;;7.15;3.75;;;-0.20;99.90;;;-0.74;100.00;99558.53;4960727;28;20061;-67
2023/02/07 02:00:45;;;;;;;7.97;3.58;;;-0.20;99.90;;;-0.68;100.00;99571.50;4971692;28;20050;-67
2023/02/07 02:03:12;;;;;;;6.95;3.70;;;-0.30;99.90;;;-0.78;100.00;99568.59;4972982;28;20141;-67
2023/02/07 02:05:40;;;;;;;6.18;3.40;;;-0.30;99.90;;;-0.79;100.00;99565.16;4959409;28;20047;-67
2023/02/07 02:08:07;;;;;;;6.03;3.60;;;-0.30;99.90;;;-0.71;100.00;99562.88;4959959;28;20051;-67
2023/02/07 02:10:52;;;;;;;6.30;3.78;;;-0.30;99.90;;;-0.76;100.00;99559.31;4959716;28;20074;-67
2023/02/07 02:13:44;;;;;;;8.75;4.00;;;-0.30;99.90;;;-0.67;100.00;99559.63;4956311;28;20066;-67
2023/02/07 02:16:28;;;;;;;5.53;3.53;;;-0.20;99.90;;;-0.72;100.00;99561.16;4945348;28;20502;-67
2023/02/07 02:19:52;;;;;;;6.38;3.92;;;-0.20;99.90;;;-0.72;100.00;99569.66;4957184;28;20090;-67
2023/02/07 02:22:47;;;;;;;6.85;3.80;;;-0.20;99.90;;;-0.74;100.00;99567.88;4957151;28;20055;-67
2023/02/07 02:25:52;;;;;;;8.13;3.45;;;-0.20;99.90;;;-0.79;100.00;99574.50;4959605;28;20497;-67
2023/02/07 02:29:08;;;;;;;6.80;3.53;;;-0.30;99.90;;;-0.81;100.00;99573.59;4957678;28;20055;-67
2023/02/07 02:32:40;;;;;;;5.50;3.22;;;-0.40;99.90;;;-0.81;100.00;99579.53;4958221;28;20201;-67
2023/02/07 02:35:13;;;;;;;6.20;3.30;;;-0.40;99.90;;;-0.87;100.00;99567.47;4927048;28;20387;-67
2023/02/07 02:38:03;;;;;;;5.72;2.95;;;-0.40;99.90;;;-0.80;100.00;99577.84;4956563;28;20512;-67
2023/02/07 02:40:54;;;;;;;6.75;3.80;;;-0.40;99.90;;;-0.92;100.00;99580.84;4960874;28;21789;-67
2023/02/07 02:43:43;;;;;;;6.22;3.45;;;-0.40;99.90;;;-0.92;100.00;99579.16;4956767;28;20046;-66
2023/02/07 02:46:22;;;;;;;4.97;3.67;;;-0.40;99.90;;;-0.91;100.00;99572.41;4958318;28;20057;-67
2023/02/07 02:48:51;;;;;;;7.57;3.90;;;-0.40;99.90;;;-0.88;100.00;99567.41;4960227;28;20130;-67
2023/02/07 02:51:19;;;;;;;6.53;3.72;;;-0.40;99.90;;;-0.92;100.00;99571.50;4956645;28;20122;-66
2023/02/07 02:53:57;;;;;;;7.82;4.40;;;-0.50;99.90;;;-0.97;100.00;99557.75;4954953;28;20503;-67
2023/02/07 02:56:57;;;;;;;5.95;3.35;;;-0.50;99.90;;;-0.95;100.00;99565.47;4958049;28;20059;-67
2023/02/07 02:59:47;;;;;;;8.35;3.92;;;-0.50;99.90;;;-1.00;100.00;99552.56;4960495;28;20142;-67
2023/02/07 03:02:44;;;;;;;7.05;3.72;;;-0.50;99.90;;;-1.00;100.00;99547.44;4958084;28;20063;-66
2023/02/07 03:05:35;;;;;;;6.65;4.00;;;-0.50;99.90;;;-1.00;100.00;99544.00;4955767;28;20053;-67
2023/02/07 03:08:29;;;;;;;7.28;3.90;;;-0.60;99.90;;;-1.00;100.00;99544.00;4956797;28;20465;-67
2023/02/07 03:11:27;;;;;;;5.85;3.30;;;-0.60;99.90;;;-1.06;100.00;99542.13;4956008;28;20511;-67
2023/02/07 03:14:03;;;;;;;8.30;4.18;;;-0.70;99.90;;;-1.11;100.00;99541.97;4946534;28;20051;-67
2023/02/07 03:17:06;;;;;;;7.45;4.28;;;-0.70;99.90;;;-1.07;100.00;99540.41;4957301;28;20054;-66
2023/02/07 03:20:18;;;;;;;5.57;3.20;;;-0.70;99.90;;;-1.04;100.00;99547.28;4955587;28;20055;-67
2023/02/07 03:22:50;;;;;;;6.82;3.47;;;-0.70;99.90;;;-1.09;100.00;99539.50;4945137;28;20059;-67
2023/02/07 03:25:20;;;;;;;6.93;3.88;;;-0.60;99.90;;;-1.04;100.00;99547.28;4956965;28;20641;-66
2023/02/07 03:27:48;;;;;;;7.63;4.32;;;-0.60;99.90;;;-1.07;100.00;99556.56;4941384;28;20129;-67
2023/02/07 03:30:20;;;;;;;7.18;4.28;;;-0.60;99.90;;;-1.10;100.00;99541.13;4949398;28;20078;-67
2023/02/07 03:32:54;;;;;;;6.90;4.40;;;-0.60;99.90;;;-1.04;100.00;99543.06;4960887;28;20097;-67
2023/02/07 03:35:29;;;;;;;7.50;4.30;;;-0.60;99.90;;;-1.00;100.00;99554.22;4956960;28;20046;-67
2023/02/07 03:38:00;;;;;;;6.47;3.60;;;-0.60;99.90;;;-1.02;100.00;99556.72;4961237;28;20053;-66
2023/02/07 03:40:36;;;;;;;7.57;3.65;;;-0.60;99.90;;;-1.13;100.00;99553.78;4956758;28;20051;-67
2023/02/07 03:43:13;;;;;;;7.90;4.75;;;-0.60;99.90;;;-1.08;100.00;99556.50;4964749;28;20054;-67
2023/02/07 03:45:41;;;;;;;6.63;4.20;;;-0.60;99.90;;;-0.97;100.00;99561.97;4955966;28;20495;-67
2023/02/07 03:48:08;;;;;;;7.50;4.80;;;-0.50;99.90;;;-1.06;100.00;99557.41;4957174;28;20051;-67
2023/02/07 03:50:36;;;;;;;8.10;4.78;;;-0.50;99.90;;;-1.08;100.00;99553.94;4956224;28;20046;-67
2023/02/07 03:53:03;;;;;;;6.95;4.13;;;-0.50;99.90;;;-0.96;100.00;99556.06;4956229;28;20588;-67
2023/02/07 03:55:31;;;;;;;7.22;4.88;;;-0.60;99.90;;;-1.00;100.00;99559.31;4958981;28;20061;-67
2023/02/07 03:57:59;;;;;;;11.60;5.30;;;-0.60;99.90;;;-1.04;100.00;99552.38;4962719;28;20524;-67
2023/02/07 04:00:26;;;;;;;7.93;4.85;;;-0.60;99.90;;;-1.13;100.00;99551.25;4955816;28;20051;-67
2023/02/07 04:02:53;;;;;;;8.35;5.05;;;-0.70;99.90;;;-1.19;100.00;99558.66;4957277;28;20058;-67
2023/02/07 04:05:20;;;;;;;7.07;3.88;;;-0.80;99.90;;;-1.15;100.00;99552.00;4955901;28;20051;-67
2023/02/07 04:07:47;;;;;;;9.18;5.50;;;-0.80;99.90;;;-1.22;100.00;99561.09;4961214;28;20058;-67
2023/02/07 04:10:15;;;;;;;8.70;4.57;;;-0.80;99.90;;;-1.22;100.00;99558.56;4959530;28;20053;-67
2023/02/07 04:12:42;;;;;;;8.32;5.00;;;-0.90;99.90;;;-1.16;100.00;99560.47;4959221;28;20051;-67
2023/02/07 04:15:09;;;;;;;9.73;5.57;;;-0.90;99.90;;;-1.27;100.00;99562.63;4960914;28;20079;-67
2023/02/07 04:17:36;;;;;;;9.98;4.82;;;-0.90;99.90;;;-1.29;100.00;99566.78;4958745;28;20490;-67
2023/02/07 04:20:05;;;;;;;8.50;5.25;;;-0.90;99.90;;;-1.35;100.00;99566.56;4962227;28;20623;-67
2023/02/07 04:22:32;;;;;;;8.70;5.43;;;-0.90;99.90;;;-1.30;100.00;99565.03;4959593;28;20054;-66
2023/02/07 04:24:59;;;;;;;8.30;4.18;;;-0.90;99.90;;;-1.41;100.00;99559.56;4957982;28;20070;-66
2023/02/07 04:27:26;;;;;;;7.32;4.50;;;-1.00;99.90;;;-1.45;100.00;99565.34;4971491;28;20100;-67
2023/02/07 04:29:53;;;;;;;9.02;5.28;;;-1.00;99.90;;;-1.43;100.00;99562.88;4964171;28;20055;-66
2023/02/07 04:32:20;;;;;;;9.80;4.65;;;-1.10;99.90;;;-1.52;100.00;99559.16;4961438;28;20048;-67
2023/02/07 04:34:47;;;;;;;8.80;5.00;;;-1.10;99.90;;;-1.47;100.00;99560.19;4933302;28;20047;-67
2023/02/07 04:37:14;;;;;;;10.50;4.95;;;-1.20;99.90;;;-1.52;100.00;99550.66;4959435;28;20799;-67
2023/02/07 04:39:41;;;;;;;9.35;4.57;;;-1.20;99.90;;;-1.52;100.00;99551.53;4961446;28;20051;-67
2023/02/07 04:42:08;;;;;;;7.13;4.65;;;-1.20;99.90;;;-1.60;100.00;99550.34;4958566;28;20054;-66
2023/02/07 04:44:35;;;;;;;8.07;4.28;;;-1.30;99.90;;;-1.61;100.00;99546.09;4959193;28;20529;-66
2023/02/07 04:47:02;;;;;;;9.63;5.22;;;-1.30;99.90;;;-1.63;100.00;99547.72;4961306;28;20047;-66
2023/02/07 04:49:29;;;;;;;8.63;4.63;;;-1.30;99.90;;;-1.72;100.00;99545.69;4964558;28;20054;-66
2023/02/07 04:51:59;;;;;;;9.40;5.22;;;-1.30;99.90;;;-1.71;100.00;99537.25;4959057;28;20051;-67
2023/02/07 04:54:26;;;;;;;7.85;4.43;;;-1.40;99.90;;;-1.79;100.00;99538.63;4959415;28;20043;-66
2023/02/07 04:56:53;;;;;;;8.65;4.65;;;-1.40;99.90;;;-1.77;100.00;99534.47;4960445;28;20055;-66
2023/02/07 04:59:20;;;;;;;10.60;5.35;;;-1.40;99.90;;;-1.75;100.00;99532.84;4959814;28;20058;-67
2023/02/07 05:01:47;;;;;;;9.77;4.78;;;-1.40;99.90;;;-1.69;100.00;99527.09;4973951;28;20146;-70
2023/02/07 05:04:14;;;;;;;7.35;3.97;;;-1.40;99.90;;;-1.77;100.00;99537.00;4959648;28;20069;-66
2023/02/07 05:06:41;;;;;;;7.70;4.20;;;-1.40;99.90;;;-1.91;100.00;99531.38;4959476;28;20079;-66
2023/02/07 05:34:10;;;;;;;11.32;4.70;;;-1.70;99.90;;;-2.18;100.00;99555.75;4959756;28;20124;-66
2023/02/07 05:36:40;;;;;;;9.80;4.32;;;-1.70;99.90;;;-2.14;100.00;99558.50;4963436;28;20051;-67
2023/02/07 05:39:57;;;;;;;9.80;4.90;;;-1.80;99.90;;;-2.11;100.00;99561.16;4957928;28;21138;-66
2023/02/07 05:43:17;;;;;;;7.65;3.33;;;-1.80;99.90;;;-2.24;100.00;99574.19;4959263;28;20149;-66
2023/02/07 05:46:33;;;;;;;8.85;4.55;;;-1.90;99.90;;;-2.19;100.00;99584.53;4962390;28;20102;-66
2023/02/07 05:56:54;;;;;;;11.95;5.47;;;-2.00;99.90;;;-2.39;100.00;99593.91;4959852;28;20235;-66
2023/02/07 07:11:22;;;;;;;15.55;7.55;;;-2.30;99.90;;;-2.81;100.00;99573.50;4957224;28;20483;-67
2023/02/07 07:13:49;;;;;;;18.15;7.18;;;-2.30;99.90;;;-2.82;100.00;99577.72;4955254;28;20047;-67
2023/02/07 07:16:16;;;;;;;13.98;8.38;;;-2.40;99.90;;;-2.81;100.00;99581.13;4955317;28;20750;-67
2023/02/07 07:18:44;;;;;;;16.67;7.03;;;-2.40;99.90;;;-2.88;100.00;99582.53;4956538;28;20055;-67
2023/02/07 07:21:11;;;;;;;16.08;8.80;;;-2.30;99.90;;;-2.83;100.00;99587.81;4956892;28;20325;-67
2023/02/07 07:23:38;;;;;;;17.15;9.15;;;-2.40;99.90;;;-2.80;100.00;99590.50;4953003;28;20058;-67
2023/02/07 07:26:05;;;;;;;16.70;9.25;;;-2.30;99.90;;;-2.82;100.00;99592.09;4960588;28;20089;-67
2023/02/07 07:53:26;;;;;;;15.55;7.53;;;-2.20;99.90;;;-2.68;100.00;99631.69;4960141;28;20093;-67
2023/02/07 07:56:46;;;;;;;13.77;7.82;;;-2.10;99.90;;;-2.68;100.00;99639.31;4962586;28;20101;-67
2023/02/07 08:15:38;;;;;;;17.08;9.80;;;-2.00;99.90;;;-2.43;100.00;99641.22;4961711;28;20133;-66
2023/02/07 08:43:14;;;;;;;14.48;9.30;;;-1.60;99.90;;;-2.18;100.00;99653.28;4963764;28;20054;-66
2023/02/07 08:45:48;;;;;;;15.85;8.57;;;-1.50;99.90;;;-2.10;100.00;99666.31;4959875;28;20134;-66
2023/02/07 08:48:16;;;;;;;15.52;8.68;;;-1.40;99.90;;;-2.14;100.00;99661.94;4960166;28;20611;-66
2023/02/07 08:50:43;;;;;;;16.45;8.93;;;-1.50;99.90;;;-2.04;100.00;99663.19;4965751;28;20184;-66
2023/02/07 08:53:11;;;;;;;16.27;8.88;;;-1.40;99.90;;;-2.06;100.00;99662.25;4959551;28;20608;-66
2023/02/07 08:55:42;;;;;;;15.43;8.35;;;-1.40;99.90;;;-2.07;100.00;99666.47;4959040;28;20133;-66
2023/02/07 08:58:09;;;;;;;16.30;9.52;;;-1.30;99.90;;;-1.93;100.00;99677.22;4978530;28;20205;-66
2023/02/07 09:00:37;;;;;;;19.67;10.05;;;-1.30;99.90;;;-1.94;100.00;99670.38;4959415;28;20051;-66
2023/02/07 09:03:04;;;;;;;15.70;8.82;;;-1.30;99.90;;;-1.76;100.00;99660.94;4960579;28;20062;-66
2023/02/07 09:05:32;;;;;;;14.23;9.20;;;-1.20;99.90;;;-1.82;100.00;99662.38;4960188;28;20046;-66
2023/02/07 09:08:00;;;;;;;14.07;7.43;;;-1.10;99.90;;;-1.74;100.00;99668.63;4958456;28;20796;-66
2023/02/07 09:10:28;;;;;;;15.27;7.78;;;-1.10;99.90;;;-1.74;100.00;99658.44;4977030;28;20113;-66
2023/02/07 09:12:55;;;;;;;15.77;8.70;;;-1.10;99.90;;;-1.50;100.00;99668.75;4962936;28;20050;-66
2023/02/07 09:15:22;;;;;;;15.45;8.93;;;-1.00;99.90;;;-1.42;100.00;99669.91;4961465;28;20062;-66
2023/02/07 09:17:49;;;;;;;16.80;8.70;;;-0.80;99.90;;;-1.38;100.00;99669.22;4973914;28;20200;-66
2023/02/07 09:20:17;;;;;;;18.33;9.55;;;-0.80;99.90;;;-1.51;100.00;99670.41;4963358;28;20073;-66
2023/02/07 09:25:30;;;;;;;17.38;9.65;;;-0.70;99.90;;;-1.23;100.00;99670.59;4959794;28;20066;-66
2023/02/07 09:27:57;;;;;;;18.75;11.02;;;-0.60;99.90;;;-1.36;100.00;99677.78;4960603;28;20498;-66
2023/02/07 09:30:24;;;;;;;17.63;9.80;;;-0.60;99.90;;;-1.38;100.00;99674.31;4962072;28;20058;-66
2023/02/07 09:32:51;;;;;;;18.13;10.50;;;-0.60;99.90;;;-1.34;100.00;99681.25;4960375;28;20054;-66
2023/02/07 09:35:18;;;;;;;17.80;9.65;;;-0.60;99.90;;;-1.29;100.00;99689.94;4961562;28;20616;-66
2023/02/07 09:37:45;;;;;;;17.38;9.88;;;-0.60;99.90;;;-1.09;100.00;99684.75;4959970;28;20050;-66
2023/02/07 09:40:18;;;;;;;16.65;10.52;;;-0.50;99.90;;;-0.98;100.00;99682.59;4960286;28;20115;-66
2023/02/07 09:42:58;;;;;;;16.50;9.73;;;-0.50;99.90;;;-1.05;100.00;99681.47;4965791;28;20070;-66
2023/02/07 09:45:30;;;;;;;19.73;10.65;;;-0.40;99.90;;;-1.04;100.00;99675.59;4956544;28;20055;-66
2023/02/07 09:48:05;;;;;;;17.20;10.37;;;-0.40;99.90;;;-1.05;100.00;99668.75;4966911;28;20044;-66
2023/02/07 09:50:46;;;;;;;18.23;10.07;;;-0.40;99.90;;;-1.15;100.00;99659.88;4962654;28;20306;-66
2023/02/07 09:53:25;;;;;;;16.65;9.60;;;-0.40;99.90;;;-0.97;100.00;99657.16;4962550;28;20047;-66
2023/02/07 09:55:59;;;;;;;19.25;8.95;;;-0.30;99.90;;;-0.97;100.00;99651.19;4962560;28;20082;-66
2023/02/07 09:58:54;;;;;;;18.55;9.25;;;-0.30;99.90;;;-0.96;100.00;99646.13;4960401;28;20055;-66
2023/02/07 10:01:27;;;;;;;16.58;10.52;;;-0.30;99.90;;;-1.06;100.00;99637.28;4960886;28;20051;-66
2023/02/07 10:04:16;;;;;;;20.40;9.35;;;-0.30;99.90;;;-1.01;100.00;99632.38;4963998;28;20053;-66
2023/02/07 10:06:49;;;;;;;17.23;9.52;;;-0.30;99.90;;;-0.71;100.00;99642.81;4956248;28;20047;-66
2023/02/07 10:09:21;;;;;;;15.98;8.95;;;-0.10;99.90;;;-0.68;100.00;99639.50;4955747;28;20072;-66
2023/02/07 10:11:58;;;;;;;16.40;9.80;;;-0.10;99.90;;;-0.54;100.00;99642.53;4959076;28;20057;-67
2023/02/07 10:14:34;;;;;;;16.80;9.07;;;;;;;-0.54;100.00;99640.84;4957304;28;20043;-66
2023/02/07 10:17:12;;;;;;;16.52;9.20;;;;;;;-0.47;100.00;99641.94;4957410;28;20051;-67
2023/02/07 10:20:23;;;;;;;;;;;0.10;99.90;;;-0.51;100.00;99635.84;4958016;28;20059;-66
2023/02/07 10:23:37;;;;;;;13.27;7.80;;;0.10;99.90;;;-0.56;100.00;99623.75;4958908;28;20481;-67
2023/02/07 10:26:31;;;;;;;15.05;9.13;;;0.20;99.90;;;-0.56;100.00;99622.06;4972526;28;20055;-67
2023/02/07 10:29:26;;;;;;;16.55;9.50;;;0.20;99.90;;;-0.47;100.00;99630.03;4961744;28;20108;-67
2023/02/07 10:31:58;;;;;;;14.93;8.90;;;0.10;99.90;;;-0.46;100.00;99623.25;4956877;28;20130;-66
2023/02/07 10:34:36;;;;;;;17.33;9.25;;;0.20;99.90;;;-0.41;100.00;99637.06;4959417;28;20138;-67
2023/02/07 10:37:18;;;;;;;17.58;8.57;;;0.20;99.90;;;-0.49;100.00;99633.34;4971128;28;20058;-67
2023/02/07 10:40:05;;;;;;;17.02;9.60;;;0.20;99.90;;;-0.41;100.00;99637.06;4954413;28;20057;-67
2023/02/07 10:42:36;;;;;;;14.02;8.95;;;0.30;99.90;;;-0.41;100.00;99642.16;4960731;28;20604;-67
2023/02/07 10:45:04;;;;;;;16.58;9.73;;;0.30;99.90;;;-0.52;100.00;99630.72;4958758;28;20680;-67
2023/02/07 10:47:38;;;;;;;15.63;9.52;;;0.20;99.90;;;-0.42;100.00;99637.84;4960992;28;20125;-67
2023/02/07 10:50:16;;;;;;;13.85;9.30;;;0.30;99.90;;;-0.24;100.00;99633.38;4971085;28;20047;-67
2023/02/07 10:52:57;;;;;;;16.52;9.90;;;0.40;99.90;;;-0.42;100.00;99631.06;4961253;28;20372;-67
2023/02/07 10:55:45;;;;;;;15.35;9.27;;;0.30;99.90;;;-0.23;100.00;99627.47;4956027;28;21743;-67
2023/02/07 10:58:21;;;;;;;15.10;8.85;;;0.40;99.90;;;-0.19;100.00;99625.00;4961628;28;20053;-67
2023/02/07 11:00:52;;;;;;;16.17;9.00;;;0.50;99.90;;;0.03;100.00;99626.59;4945074;28;20122;-67
2023/02/07 11:03:24;;;;;;;15.05;8.63;;;;;;;0.11;100.00;99615.78;4962377;28;20050;-67
2023/02/07 11:06:03;;;;;;;14.23;9.02;;;0.70;99.90;;;0.24;100.00;99601.72;4958792;28;20526;-67
2023/02/07 11:08:33;;;;;;;15.52;9.07;;;0.80;99.90;;;0.14;100.00;99605.66;4956279;28;20142;-66
2023/02/07 11:11:31;;;;;;;16.70;9.25;;;0.90;99.90;;;0.23;100.00;99602.53;4960356;28;20046;-67
2023/02/07 11:14:04;;;;;;;16.23;9.57;;;0.90;99.90;;;0.25;100.00;99603.47;4958089;28;20059;-67
2023/02/07 11:16:32;;;;;;;19.45;9.20;;;0.90;99.90;;;0.07;100.00;99593.53;4958432;28;20054;-66
2023/02/07 11:19:05;;;;;;;19.45;9.63;;;0.80;99.90;;;0.32;100.00;99586.63;4958517;28;20068;-67
2023/02/07 11:21:32;;;;;;;;;;;0.90;99.90;;;0.27;100.00;99589.03;4943872;28;20054;-66
2023/02/07 11:24:35;;;;;;;13.55;8.90;;;0.90;99.90;;;0.44;100.00;99581.88;4960605;28;20016;-66
2023/02/07 11:27:22;;;;;;;13.10;8.63;;;1.00;99.90;;;0.47;100.00;99591.34;4945450;28;20205;-66
2023/02/07 11:29:59;;;;;;;13.50;8.50;;;1.10;99.90;;;0.43;100.00;99585.25;4961379;28;20154;-67
2023/02/07 11:32:27;;;;;;;13.43;8.35;;;1.10;99.90;;;0.58;100.00;99585.72;4963800;28;20046;-68
2023/02/07 11:35:04;;;;;;;18.35;9.52;;;1.20;99.90;;;0.52;100.00;99572.75;4959110;28;20050;-67
2023/02/07 11:37:57;;;;;;;13.77;8.93;;;1.20;99.90;;;0.71;100.00;99570.72;4958777;28;20165;-66
2023/02/07 11:40:46;;;;;;;13.15;7.80;;;1.30;99.90;;;0.83;100.00;99576.22;4961577;28;20055;-67
2023/02/07 11:43:20;;;;;;;13.93;7.45;;;1.40;99.90;;;0.69;100.00;99575.81;4958826;28;20051;-66
2023/02/07 11:45:51;;;;;;;15.80;8.40;;;1.30;99.90;;;0.69;100.00;99577.50;4963997;28;20915;-67
2023/02/07 11:48:30;;;;;;;15.43;8.85;;;1.40;99.90;;;0.84;100.00;99577.94;4967617;28;20063;-67
2023/02/07 11:51:03;;;;;;;16.88;8.38;;;1.40;99.90;;;0.85;100.00;99577.13;4961119;28;20057;-67
2023/02/07 11:53:52;;;;;;;16.27;8.27;;;1.40;99.90;;;0.85;100.00;99566.91;4963356;28;20047;-67
2023/02/07 11:56:25;;;;;;;13.38;7.80;;;1.50;99.90;;;1.03;100.00;99572.50;4976854;28;20068;-67
2023/02/07 11:58:53;;;;;;;13.63;7.38;;;1.60;99.90;;;1.22;100.00;99567.91;4964113;28;20133;-67
2023/02/07 12:01:31;;;;;;;13.40;7.82;;;1.70;99.90;;;1.07;100.00;99570.03;4963327;28;20081;-67
2023/02/07 12:04:10;;;;;;;13.75;8.38;;;1.70;99.90;;;1.16;100.00;99566.03;4963982;28;20077;-67
2023/02/07 12:07:07;;;;;;;16.63;8.07;;;1.80;99.90;;;1.39;100.00;99560.66;4960198;28;20450;-66
2023/02/07 12:09:48;;;;;;;11.43;7.38;;;1.90;99.90;;;1.34;100.00;99560.53;4959632;28;20051;-67
2023/02/07 12:12:35;;;;;;;14.45;8.00;;;2.00;99.90;;;1.42;100.00;99563.31;4947576;28;20052;-67
2023/02/07 12:15:22;;;;;;;15.70;8.90;;;2.10;99.90;;;1.32;100.00;99558.75;4964043;28;20174;-67
2023/02/07 12:18:00;;;;;;;17.73;9.60;;;2.10;99.90;;;1.39;100.00;99555.53;4961796;28;20138;-67
2023/02/07 12:21:24;;;;;;;15.73;8.77;;;2.10;99.90;;;1.39;100.00;99553.88;4962255;28;20134;-67
2023/02/07 12:24:00;;;;;;;14.38;7.32;;;2.10;99.90;;;1.44;100.00;99557.41;4960960;28;20050;-67
2023/02/07 12:26:35;;;;;;;14.02;9.07;;;2.10;99.90;;;1.42;100.00;99558.19;4950426;28;20461;-67
2023/02/07 12:29:14;;;;;;;16.88;8.82;;;2.10;99.90;;;1.45;100.00;99561.69;4978288;28;20047;-67
2023/02/07 12:32:06;;;;;;;14.77;8.43;;;2.20;99.90;;;1.60;100.00;99557.81;4962684;28;20078;-67
2023/02/07 12:35:10;;;;;;;14.70;9.07;;;2.20;99.90;;;1.49;100.00;99554.97;4946141;28;20054;-67
2023/02/07 12:38:21;;;;;;;13.23;8.18;;;2.20;99.90;;;1.51;100.00;99552.44;4886251;28;20076;-67
2023/02/07 12:41:15;;;;;;;17.63;8.40;;;2.20;99.90;;;1.74;100.00;99561.56;4961269;28;20065;-67
2023/02/07 12:43:55;;;;;;;16.60;8.32;;;2.30;99.90;;;1.62;100.00;99549.31;4958572;28;20510;-67
2023/02/07 12:46:39;;;;;;;12.30;7.47;;;2.30;99.90;;;1.85;100.00;99560.13;4962395;28;20054;-67
2023/02/07 12:49:32;;;;;;;16.77;8.68;;;2.40;99.90;;;1.66;100.00;99556.22;4963604;28;20141;-67
2023/02/07 12:52:43;;;;;;;13.23;7.60;;;2.40;99.90;;;1.85;100.00;99556.72;4943251;28;20047;-67
2023/02/07 12:55:37;;;;;;;14.10;8.35;;;2.50;99.90;;;1.99;100.00;99539.97;4960554;28;20146;-66
2023/02/07 12:58:39;;;;;;;13.70;7.18;;;2.60;99.90;;;1.84;100.00;99537.03;4961717;28;20280;-66
2023/02/07 13:01:18;;;;;;;15.50;8.02;;;2.50;99.90;;;2.05;100.00;99529.88;4961993;28;20085;-67
2023/02/07 13:04:06;;;;;;;12.80;7.80;;;2.60;99.90;;;2.28;100.00;99530.38;4957196;28;20113;-67
2023/02/07 13:07:04;;;;;;;14.07;7.00;;;2.80;99.90;;;2.53;100.00;99532.59;4961778;28;20047;-67
2023/02/07 13:09:47;;;;;;;14.80;7.72;;;3.00;99.90;;;2.22;100.00;99534.50;4947980;28;20083;-67
2023/02/07 13:12:37;;;;;;;10.15;6.60;;;2.90;99.90;;;2.25;100.00;99535.41;4957322;28;20770;-67
2023/02/07 13:15:45;;;;;;;13.30;7.75;;;3.10;99.90;;;2.52;100.00;99536.84;4975297;28;20463;-67
2023/02/07 13:18:29;;;;;;;11.82;6.82;;;3.20;99.90;;;2.81;100.00;99542.59;4960114;28;20712;-67
2023/02/07 13:21:20;;;;;;;11.93;6.72;;;3.50;99.90;;;2.92;100.00;99541.09;4956615;28;20510;-67
2023/02/07 13:23:48;;;;;;;10.73;6.80;;;3.60;99.90;;;2.94;100.00;99538.53;4958881;28;20110;-67
2023/02/07 13:26:20;;;;;;;10.10;6.80;;;3.60;99.90;;;2.73;100.00;99531.28;4959656;28;21030;-67
2023/02/07 13:28:55;;;;;;;11.82;6.90;;;3.50;99.90;;;2.70;100.00;99538.94;4957200;28;20153;-67
2023/02/07 13:31:48;;;;;;;12.15;6.75;;;3.50;99.90;;;2.91;100.00;99535.94;4960862;28;20066;-67
2023/02/07 13:34:20;;;;;;;11.55;6.90;;;3.60;99.90;;;3.25;100.00;99534.00;4960117;28;20113;-67
2023/02/07 13:36:50;;;;;;;12.85;7.57;;;3.80;99.90;;;2.96;100.00;99530.88;4964919;28;20061;-67
2023/02/07 13:39:26;;;;;;;14.10;7.05;;;3.80;99.90;;;3.46;100.00;99523.25;4960180;28;20051;-67
2023/02/07 13:42:35;;;;;;;11.07;7.30;;;4.00;99.90;;;3.30;100.00;99515.28;4959183;28;20131;-68
2023/02/07 13:45:22;;;;;;;12.93;7.28;;;4.40;99.90;;;4.15;100.00;99509.78;4959671;28;20050;-67
2023/02/07 13:48:03;;;;;;;13.80;7.45;;;6.50;99.90;;;4.95;100.00;99500.50;4963474;28;20050;-66
2023/02/07 13:50:49;;;;;;;16.63;7.63;;;8.50;99.90;;;4.90;100.00;99506.41;4960608;28;20074;-66